createdAt,value
2019-04-19T00:02:07.773Z,9.17
2019-04-19T00:05:26.852Z,9.20
2019-04-19T00:09:43.623Z,9.15
2019-04-19T00:12:48.726Z,9.11
2019-04-19T00:15:50.012Z,9.10
2019-04-19T00:19:22.449Z,9.00
2019-04-19T00:22:24.904Z,8.99
2019-04-19T00:25:15.642Z,8.93
2019-04-19T00:28:42.266Z,9.01
2019-04-19T00:32:08.037Z,8.90
2019-04-19T00:35:09.926Z,8.94
2019-04-19T00:38:46.783Z,8.98
2019-04-19T00:42:04.913Z,8.78
2019-04-19T00:45:15.613Z,8.75
2019-04-19T00:48:26.318Z,8.82
2019-04-19T00:51:34.356Z,8.79
2019-04-19T00:54:32.883Z,8.75
2019-04-19T00:57:39.167Z,8.72
2019-04-19T01:00:43.049Z,8.68
2019-04-19T01:03:52.791Z,8.62
2019-04-19T01:07:02.535Z,8.65
2019-04-19T01:10:31.355Z,8.65
2019-04-19T01:13:50.764Z,8.66
2019-04-19T01:17:11.235Z,8.76
2019-04-19T01:20:15.542Z,8.66
2019-04-19T01:23:40.576Z,8.73
2019-04-19T01:26:54.209Z,8.60
2019-04-19T01:30:10.432Z,8.70
2019-04-19T01:33:33.959Z,8.64
2019-04-19T01:36:41.910Z,8.57
2019-04-19T01:40:04.575Z,8.42
2019-04-19T01:43:18.989Z,8.51
2019-04-19T01:46:40.610Z,8.63
2019-04-19T01:49:59.658Z,8.59
2019-04-19T01:53:19.390Z,8.61
2019-04-19T01:56:09.197Z,8.61
2019-04-19T01:59:25.941Z,8.63
2019-04-19T02:02:45.958Z,8.56
2019-04-19T02:06:05.684Z,8.65
2019-04-19T02:09:29.120Z,8.64
2019-04-19T02:12:47.139Z,8.60
2019-04-19T02:15:56.018Z,8.59
2019-04-19T02:19:18.872Z,8.67
2019-04-19T02:22:27.726Z,8.47
2019-04-19T02:25:32.858Z,8.38
2019-04-19T02:28:42.341Z,8.42
2019-04-19T02:35:20.162Z,8.39
2019-04-19T02:38:51.497Z,8.38
2019-04-19T02:42:10.200Z,8.37
2019-04-19T02:45:24.034Z,8.34
2019-04-19T02:48:44.951Z,8.24
2019-04-19T02:51:58.320Z,8.39
2019-04-19T02:55:14.672Z,8.26
2019-04-19T02:58:37.049Z,8.19
2019-04-19T03:02:32.243Z,8.32
2019-04-19T03:08:01.899Z,8.38
2019-04-19T03:11:28.129Z,8.31
2019-04-19T03:14:35.148Z,8.16
2019-04-19T03:17:45.010Z,8.14
2019-04-19T03:20:58.736Z,8.07
2019-04-19T03:24:18.694Z,8.19
2019-04-19T03:27:37.135Z,8.24
2019-04-19T03:31:08.758Z,8.14
2019-04-19T03:34:31.101Z,8.22
2019-04-19T03:37:40.249Z,8.16
2019-04-19T03:40:58.618Z,8.06
2019-04-19T03:44:22.511Z,8.02
2019-04-19T03:47:50.445Z,8.01
2019-04-19T03:51:01.419Z,7.90
2019-04-19T03:54:05.973Z,7.79
2019-04-19T03:57:11.637Z,7.82
2019-04-19T04:00:06.993Z,7.90
2019-04-19T04:03:24.444Z,7.93
2019-04-19T04:06:27.633Z,7.86
2019-04-19T04:09:43.678Z,7.88
2019-04-19T04:13:25.498Z,8.06
2019-04-19T04:16:38.722Z,7.92
2019-04-19T04:19:58.705Z,8.01
2019-04-19T04:23:10.516Z,7.87
2019-04-19T04:26:19.488Z,7.84
2019-04-19T04:29:33.778Z,7.97
2019-04-19T04:32:49.931Z,7.90
2019-04-19T04:35:55.505Z,7.83
2019-04-19T04:38:50.006Z,7.77
2019-04-19T04:42:08.923Z,7.83
2019-04-19T04:45:39.417Z,7.93
2019-04-19T04:49:07.206Z,7.78
2019-04-19T04:52:18.252Z,7.69
2019-04-19T04:55:22.319Z,7.84
2019-04-19T04:58:47.065Z,7.99
2019-04-19T05:02:02.569Z,7.74
2019-04-19T05:05:19.873Z,7.79
2019-04-19T05:08:30.813Z,7.91
2019-04-19T05:11:34.081Z,8.03
2019-04-19T05:14:41.853Z,7.85
2019-04-19T05:17:58.578Z,8.04
2019-04-19T05:20:55.784Z,8.14
2019-04-19T05:24:14.927Z,8.04
2019-04-19T05:27:33.187Z,8.14
2019-04-19T05:30:41.066Z,8.17
2019-04-19T05:34:12.400Z,8.18
2019-04-19T05:37:25.098Z,8.18
2019-04-19T05:40:56.023Z,8.18
2019-04-19T05:47:26.130Z,8.30
2019-04-19T05:50:54.819Z,8.33
2019-04-19T05:53:53.739Z,8.52
2019-04-19T05:57:28.143Z,8.52
2019-04-19T06:00:44.674Z,8.69
2019-04-19T06:03:52.612Z,8.63
2019-04-19T06:07:12.327Z,8.70
2019-04-19T06:10:08.904Z,8.67
2019-04-19T06:13:17.075Z,8.68
2019-04-19T06:16:39.537Z,8.82
2019-04-19T06:20:08.360Z,8.78
2019-04-19T06:23:19.514Z,8.92
2019-04-19T06:29:43.652Z,8.88
2019-04-19T06:32:44.889Z,8.99
2019-04-19T06:35:43.899Z,9.04
2019-04-19T06:38:42.277Z,9.20
2019-04-19T06:41:56.497Z,9.28
2019-04-19T06:45:28.003Z,9.29
2019-04-19T06:48:21.455Z,9.46
2019-04-19T06:51:42.713Z,9.55
2019-04-19T06:54:52.017Z,9.63
2019-04-19T06:58:07.679Z,9.57
2019-04-19T07:01:31.630Z,9.71
2019-04-19T07:04:46.128Z,10.04
2019-04-19T07:08:41.211Z,9.98
2019-04-19T07:11:31.729Z,10.19
2019-04-19T07:14:33.611Z,10.14
2019-04-19T07:18:03.705Z,10.24
2019-04-19T07:21:17.746Z,10.14
2019-04-19T07:24:33.678Z,10.27
2019-04-19T07:27:30.843Z,10.46
2019-04-19T07:30:26.651Z,10.66
2019-04-19T07:33:53.818Z,10.54
2019-04-19T07:37:19.560Z,10.95
2019-04-19T07:40:45.845Z,10.91
2019-04-19T07:44:02.408Z,10.93
2019-04-19T07:47:39.375Z,10.97
2019-04-19T07:50:47.186Z,11.19
2019-04-19T07:53:49.150Z,11.26
2019-04-19T07:57:33.401Z,11.31
2019-04-19T08:00:48.556Z,11.66
2019-04-19T08:04:06.244Z,11.59
2019-04-19T08:07:06.707Z,11.70
2019-04-19T08:10:18.509Z,11.69
2019-04-19T08:13:31.930Z,11.95
2019-04-19T08:29:26.661Z,12.40
2019-04-19T08:32:32.304Z,12.36
2019-04-19T08:35:45.407Z,12.53
2019-04-19T08:39:06.794Z,12.66
2019-04-19T08:42:29.376Z,12.91
2019-04-19T08:45:40.335Z,12.72
2019-04-19T08:48:59.355Z,12.87
2019-04-19T08:52:33.641Z,13.15
2019-04-19T08:56:05.357Z,13.04
2019-04-19T08:59:35.750Z,13.53
2019-04-19T09:02:34.163Z,13.41
2019-04-19T09:05:46.982Z,13.53
2019-04-19T09:08:52.328Z,13.70
2019-04-19T09:12:05.183Z,13.76
2019-04-19T09:15:14.077Z,13.63
2019-04-19T09:21:24.050Z,13.91
2019-04-19T09:24:32.026Z,14.14
2019-04-19T09:27:49.230Z,14.17
2019-04-19T09:30:52.079Z,14.40
2019-04-19T09:33:47.332Z,14.34
2019-04-19T09:37:02.112Z,14.70
2019-04-19T09:40:07.122Z,14.70
2019-04-19T09:43:34.469Z,14.91
2019-04-19T09:46:40.368Z,14.93
2019-04-19T09:50:03.839Z,14.96
2019-04-19T09:53:25.879Z,14.88
2019-04-19T09:56:33.780Z,15.19
2019-04-19T09:59:37.355Z,15.29
2019-04-19T10:02:56.416Z,15.45
2019-04-19T10:06:11.048Z,15.54
2019-04-19T10:09:21.840Z,15.73
2019-04-19T10:12:27.530Z,15.35
2019-04-19T10:15:40.643Z,15.47
2019-04-19T10:19:06.897Z,15.83
2019-04-19T10:22:23.237Z,15.87
2019-04-19T10:25:47.833Z,16.18
2019-04-19T10:28:50.709Z,16.21
2019-04-19T10:32:17.225Z,16.31
2019-04-19T10:35:25.320Z,16.66
2019-04-19T10:38:33.906Z,16.70
2019-04-19T10:41:50.484Z,16.63
2019-04-19T10:45:12.040Z,16.72
2019-04-19T10:48:20.036Z,16.87
2019-04-19T10:51:48.639Z,17.13
2019-04-19T10:54:57.123Z,17.09
2019-04-19T10:58:05.416Z,17.34
2019-04-19T11:01:23.278Z,17.45
2019-04-19T11:04:31.145Z,17.92
2019-04-19T11:07:47.855Z,17.76
2019-04-19T11:11:05.587Z,17.78
2019-04-19T11:14:14.289Z,18.01
2019-04-19T11:17:21.575Z,17.86
2019-04-19T11:20:37.543Z,18.07
2019-04-19T11:23:36.183Z,18.11
2019-04-19T11:26:43.601Z,18.35
2019-04-19T11:29:54.379Z,18.58
2019-04-19T11:33:23.516Z,18.73
2019-04-19T11:36:29.338Z,18.72
2019-04-19T11:39:37.109Z,18.84
2019-04-19T11:42:45.587Z,18.94
2019-04-19T11:45:53.661Z,19.19
2019-04-19T11:49:01.729Z,19.31
2019-04-19T11:52:23.924Z,19.29
2019-04-19T11:55:32.651Z,19.43
2019-04-19T11:58:40.735Z,19.68
2019-04-19T12:01:48.714Z,19.76
2019-04-19T12:04:56.250Z,19.83
2019-04-19T12:08:04.433Z,20.21
2019-04-19T12:11:12.655Z,20.75
2019-04-19T12:14:31.207Z,21.61
2019-04-19T12:17:48.257Z,22.31
2019-04-19T12:21:05.129Z,23.06
2019-04-19T12:24:22.470Z,23.81
2019-04-19T12:27:29.775Z,24.10
2019-04-19T12:30:39.181Z,24.54
2019-04-19T12:33:47.467Z,25.11
2019-04-19T12:36:55.158Z,24.82
2019-04-19T12:40:03.412Z,26.05
2019-04-19T12:43:12.012Z,26.50
2019-04-19T12:46:19.423Z,26.50
2019-04-19T12:49:26.765Z,27.06
2019-04-19T12:52:34.203Z,27.32
2019-04-19T12:55:41.954Z,27.27
2019-04-19T12:58:59.837Z,27.17
2019-04-19T13:02:16.032Z,27.93
2019-04-19T13:05:28.376Z,26.79
2019-04-19T13:08:36.984Z,27.79
2019-04-19T13:11:45.066Z,27.64
2019-04-19T13:15:02.125Z,26.69
2019-04-19T13:18:20.224Z,27.97
2019-04-19T13:21:38.622Z,28.15
2019-04-19T13:24:46.769Z,26.51
2019-04-19T13:27:57.847Z,26.16
2019-04-19T13:31:04.303Z,26.77
2019-04-19T13:34:11.850Z,27.28
2019-04-19T13:37:27.303Z,27.64
2019-04-19T13:40:54.168Z,27.46
2019-04-19T13:44:25.046Z,26.81
2019-04-19T13:47:31.155Z,27.63
2019-04-19T13:50:40.818Z,26.93
2019-04-19T13:53:48.832Z,27.32
2019-04-19T13:56:57.662Z,26.86
2019-04-19T14:00:09.960Z,27.37
2019-04-19T14:03:17.347Z,27.43
2019-04-19T14:06:26.477Z,26.43
2019-04-19T14:09:43.712Z,26.58
2019-04-19T14:12:51.521Z,26.60
2019-04-19T14:16:09.189Z,26.71
2019-04-19T14:19:16.627Z,26.40
2019-04-19T14:22:25.544Z,26.29
2019-04-19T14:25:33.591Z,26.60
2019-04-19T14:28:51.485Z,25.88
2019-04-19T14:31:59.200Z,26.20
2019-04-19T14:35:17.419Z,26.20
2019-04-19T14:38:25.620Z,25.71
2019-04-19T14:41:33.699Z,26.34
2019-04-19T14:44:51.462Z,25.93
2019-04-19T14:48:09.039Z,25.73
2019-04-19T14:51:28.696Z,26.10
2019-04-19T14:54:44.305Z,25.49
2019-04-19T14:58:01.080Z,25.80
2019-04-19T15:01:46.909Z,25.69
2019-04-19T15:05:31.899Z,25.61
2019-04-19T15:08:39.426Z,25.63
2019-04-19T15:11:47.651Z,25.11
2019-04-19T15:14:55.481Z,25.04
2019-04-19T15:18:04.359Z,24.87
2019-04-19T15:21:23.302Z,24.60
2019-04-19T15:24:30.556Z,24.43
2019-04-19T15:27:39.077Z,23.57
2019-04-19T15:30:56.264Z,24.46
2019-04-19T15:34:03.779Z,24.38
2019-04-19T15:37:11.802Z,24.18
2019-04-19T15:40:31.985Z,24.00
2019-04-19T15:43:48.509Z,23.87
2019-04-19T15:47:06.432Z,23.60
2019-04-19T15:50:14.172Z,23.53
2019-04-19T15:53:31.957Z,23.31
2019-04-19T15:56:40.298Z,23.29
2019-04-19T15:59:47.871Z,22.84
2019-04-19T16:03:20.488Z,22.58
2019-04-19T16:06:36.297Z,21.91
2019-04-19T16:10:08.429Z,22.01
2019-04-19T16:13:14.071Z,21.88
2019-04-19T16:16:23.059Z,21.51
2019-04-19T16:19:30.457Z,21.65
2019-04-19T16:22:38.169Z,21.47
2019-04-19T16:25:57.042Z,21.39
2019-04-19T16:29:04.382Z,21.21
2019-04-19T16:32:12.493Z,20.96
2019-04-19T16:35:20.098Z,20.70
2019-04-19T16:38:36.545Z,20.62
2019-04-19T16:41:44.880Z,20.37
2019-04-19T16:44:52.244Z,20.30
2019-04-19T16:47:59.862Z,20.07
2019-04-19T16:51:16.866Z,20.00
2019-04-19T16:54:34.272Z,19.89
2019-04-19T16:57:42.747Z,19.73
2019-04-19T17:00:50.372Z,19.67
2019-04-19T17:03:57.742Z,19.57
2019-04-19T17:07:05.163Z,19.40
2019-04-19T17:10:12.420Z,19.22
2019-04-19T17:13:20.570Z,19.14
2019-04-19T17:16:50.678Z,18.83
2019-04-19T17:20:16.966Z,18.75
2019-04-19T17:23:24.463Z,18.46
2019-04-19T17:26:31.620Z,18.46
2019-04-19T17:29:49.309Z,18.37
2019-04-19T17:32:58.831Z,18.27
2019-04-19T17:36:06.173Z,18.16
2019-04-19T17:39:23.003Z,18.09
2019-04-19T17:42:30.625Z,17.82
2019-04-19T17:45:37.753Z,17.68
2019-04-19T17:48:46.463Z,17.51
2019-04-19T17:52:04.320Z,17.39
2019-04-19T17:55:13.388Z,17.29
2019-04-19T17:58:12.430Z,17.17
2019-04-19T18:01:20.252Z,16.89
2019-04-19T18:04:28.252Z,16.75
2019-04-19T18:07:40.955Z,16.71
2019-04-19T18:10:50.375Z,16.53
2019-04-19T18:13:53.292Z,16.43
2019-04-19T18:17:00.813Z,16.32
2019-04-19T18:20:14.034Z,16.27
2019-04-19T18:23:27.181Z,16.19
2019-04-19T18:26:36.658Z,15.98
2019-04-19T18:30:03.836Z,15.94
2019-04-19T18:33:33.551Z,15.95
2019-04-19T18:36:46.218Z,15.68
2019-04-19T18:40:00.380Z,15.59
2019-04-19T18:43:23.767Z,15.45
2019-04-19T18:46:26.836Z,15.33
2019-04-19T18:49:43.548Z,15.25
2019-04-19T18:53:14.064Z,15.14
2019-04-19T18:56:22.090Z,14.97
2019-04-19T18:59:36.983Z,14.86
2019-04-19T19:02:51.670Z,14.76
2019-04-19T19:06:05.751Z,14.65
2019-04-19T19:09:33.496Z,14.53
2019-04-19T19:12:45.130Z,14.42
2019-04-19T19:15:54.317Z,14.41
2019-04-19T19:19:00.666Z,14.39
2019-04-19T19:22:06.935Z,14.30
2019-04-19T19:25:29.923Z,14.24
2019-04-19T19:28:26.481Z,14.12
2019-04-19T19:31:34.841Z,14.11
2019-04-19T19:34:43.797Z,14.05
2019-04-19T19:37:52.395Z,13.92
2019-04-19T19:41:14.869Z,13.70
2019-04-19T19:44:25.299Z,13.79
2019-04-19T19:47:58.781Z,13.78
2019-04-19T19:51:05.589Z,13.65
2019-04-19T19:57:35.323Z,13.59
2019-04-19T20:01:03.526Z,13.49
2019-04-19T20:04:04.609Z,13.42
2019-04-19T20:07:15.373Z,13.28
2019-04-19T20:10:21.336Z,13.20
2019-04-19T20:13:38.469Z,13.15
2019-04-19T20:16:38.342Z,13.17
2019-04-19T20:19:48.231Z,13.13
2019-04-19T20:22:53.852Z,12.99
2019-04-19T20:26:19.214Z,13.04
2019-04-19T20:29:25.410Z,12.84
2019-04-19T20:32:30.439Z,12.88
2019-04-19T20:35:38.874Z,12.87
2019-04-19T20:38:52.018Z,12.89
2019-04-19T20:42:00.127Z,12.77
2019-04-19T20:45:12.299Z,12.69
2019-04-19T20:48:17.809Z,12.64
2019-04-19T20:51:48.469Z,12.52
2019-04-19T20:55:04.532Z,12.56
2019-04-19T20:58:09.615Z,12.63
2019-04-19T21:01:07.714Z,12.49
2019-04-19T21:04:17.904Z,12.56
2019-04-19T21:07:36.746Z,12.41
2019-04-19T21:10:57.858Z,12.42
2019-04-19T21:14:11.272Z,12.37
2019-04-19T21:17:18.808Z,12.35
2019-04-19T21:20:29.549Z,12.31
2019-04-19T21:23:36.276Z,12.13
2019-04-19T21:26:43.907Z,12.16
2019-04-19T21:29:52.197Z,12.10
2019-04-19T21:33:05.808Z,12.11
2019-04-19T21:36:11.632Z,12.00
2019-04-19T21:39:19.906Z,12.01
2019-04-19T21:42:41.711Z,11.90
2019-04-19T21:45:55.015Z,11.91
2019-04-19T21:49:08.995Z,11.85
2019-04-19T21:52:16.273Z,11.85
2019-04-19T21:55:28.668Z,11.76
2019-04-19T21:58:29.898Z,11.57
2019-04-19T22:01:41.452Z,11.52
2019-04-19T22:04:50.764Z,11.66
2019-04-19T22:07:56.320Z,11.64
2019-04-19T22:11:02.658Z,11.66
2019-04-19T22:14:13.039Z,11.66
2019-04-19T22:17:23.267Z,11.57
2019-04-19T22:20:27.926Z,11.55
2019-04-19T22:23:49.107Z,11.41
2019-04-19T22:27:03.190Z,11.39
2019-04-19T22:30:21.175Z,11.26
2019-04-19T22:33:28.549Z,11.16
2019-04-19T22:36:48.529Z,11.22
2019-04-19T22:40:04.858Z,11.23
2019-04-19T22:43:14.654Z,11.27
2019-04-19T22:46:21.520Z,11.23
2019-04-19T22:49:33.361Z,11.18
2019-04-19T22:52:36.658Z,11.09
2019-04-19T22:55:52.241Z,11.17
2019-04-19T22:58:52.056Z,11.17
2019-04-19T23:02:36.307Z,11.13
2019-04-19T23:05:44.739Z,11.06
2019-04-19T23:08:58.816Z,11.00
2019-04-19T23:12:06.934Z,10.93
2019-04-19T23:15:15.731Z,10.83
2019-04-19T23:18:24.013Z,10.94
2019-04-19T23:21:31.188Z,10.83
2019-04-19T23:24:45.768Z,10.66
2019-04-19T23:27:53.453Z,10.76
2019-04-19T23:30:59.780Z,10.74
2019-04-19T23:34:07.539Z,10.71
2019-04-19T23:37:16.373Z,10.72
2019-04-19T23:40:31.283Z,10.58
2019-04-19T23:43:35.858Z,10.59
2019-04-19T23:46:41.364Z,10.56
2019-04-19T23:49:50.831Z,10.46
2019-04-19T23:53:00.648Z,10.37
2019-04-19T23:56:18.239Z,10.42
2019-04-19T23:59:19.053Z,10.11
